Time;durP1;ratioP1;P1;durP2;ratioP2;P2;SDS_P1;SDS_P2;PMS_P1;PMS_P2;Temp;Humidity;BMP_temperature;BMP_pressure;BME280_temperature;BME280_humidity;BME280_pressure;Samples;Min_cycle;Max_cycle;Signal;HPM_P1;HPM_P2
2024/03/19 00:01:59;;;;;;;23.67;15.02;;;;;;;11.24;100.00;101621.47;5096748;28;20126;-71
2024/03/19 00:04:46;;;;;;;25.30;15.88;;;;;;;11.22;100.00;101623.63;5083397;28;20499;-71
2024/03/19 00:07:33;;;;;;;23.38;15.02;;;;;;;11.17;100.00;101623.56;5077016;28;20108;-71
2024/03/19 00:10:20;;;;;;;29.27;16.05;;;;;;;11.03;100.00;101618.44;5082988;28;20048;-71
2024/03/19 00:13:07;;;;;;;25.88;14.82;;;;;;;10.97;100.00;101619.47;5095992;28;20040;-71
2024/03/19 00:15:54;;;;;;;26.85;14.98;;;;;;;10.93;100.00;101614.75;5098631;28;20094;-71
2024/03/19 00:18:42;;;;;;;23.42;14.60;;;;;;;10.88;100.00;101613.59;5104388;27;20567;-70
2024/03/19 00:21:29;;;;;;;25.00;14.23;;;;;;;10.89;100.00;101617.16;5080720;28;20051;-71
2024/03/19 00:24:16;;;;;;;23.63;15.52;;;;;;;10.92;100.00;101616.69;5084114;28;20043;-70
2024/03/19 00:27:03;;;;;;;32.65;15.35;;;;;;;10.97;100.00;101607.75;5067949;28;20056;-70
2024/03/19 00:29:50;;;;;;;23.90;15.18;;;;;;;11.02;100.00;101611.34;5085595;28;20071;-71
2024/03/19 00:32:38;;;;;;;24.75;15.88;;;;;;;11.05;100.00;101621.75;5070033;28;20048;-71
2024/03/19 00:35:25;;;;;;;28.65;16.52;;;;;;;11.09;100.00;101608.44;5094897;27;20046;-71
2024/03/19 00:38:13;;;;;;;24.10;14.68;;;;;;;11.13;100.00;101611.47;5083745;28;20075;-71
2024/03/19 00:41:00;;;;;;;25.48;15.98;;;;;;;11.17;100.00;101612.66;5086350;28;20040;-71
2024/03/19 00:43:47;;;;;;;28.13;16.45;;;;;;;11.19;100.00;101596.84;5083045;28;20052;-71
2024/03/19 00:46:34;;;;;;;28.02;16.23;;;;;;;11.15;100.00;101598.44;5062813;28;20484;-71
2024/03/19 00:49:21;;;;;;;26.58;16.08;;;;;;;11.09;100.00;101601.09;5079475;28;20044;-71
2024/03/19 00:52:08;;;;;;;26.02;16.17;;;;;;;11.06;100.00;101596.16;5083434;28;20511;-71
2024/03/19 00:54:55;;;;;;;27.75;16.65;;;;;;;11.02;100.00;101589.53;5086296;28;20043;-71
2024/03/19 00:57:42;;;;;;;27.05;16.45;;;;;;;10.98;100.00;101582.94;5096360;28;20051;-72
2024/03/19 01:00:29;;;;;;;28.40;16.52;;;;;;;11.00;100.00;101593.59;5085528;28;20055;-71
2024/03/19 01:03:16;;;;;;;27.85;15.27;;;;;;;11.03;100.00;101590.34;5071817;28;20071;-71
2024/03/19 01:06:04;;;;;;;30.23;16.65;;;;;;;11.05;100.00;101589.03;5098914;28;20043;-70
2024/03/19 01:08:51;;;;;;;28.75;17.38;;;;;;;11.07;100.00;101586.88;5107010;27;20036;-70
2024/03/19 01:11:39;;;;;;;26.40;16.55;;;;;;;11.08;100.00;101585.78;5072079;28;20475;-71
2024/03/19 01:14:26;;;;;;;29.05;16.20;;;;;;;11.09;100.00;101589.38;5071719;28;20087;-70
2024/03/19 01:17:13;;;;;;;27.55;16.73;;;;;;;11.09;100.00;101589.38;5099159;28;20100;-71
2024/03/19 01:20:02;;;;;;;22.77;15.40;;;;;;;11.11;100.00;101586.38;5089068;28;20093;-70
2024/03/19 01:22:49;;;;;;;27.25;14.73;;;;;;;11.11;100.00;101586.38;5083402;28;20500;-71
2024/03/19 01:25:36;;;;;;;24.33;14.43;;;;;;;11.09;100.00;101587.44;5084400;28;20047;-70
2024/03/19 01:28:23;;;;;;;25.30;14.27;;;;;;;11.12;100.00;101588.03;5081411;28;20035;-71
2024/03/19 01:31:10;;;;;;;22.13;14.85;;;;;;;11.13;100.00;101589.66;5069651;28;20063;-71
2024/03/19 01:33:57;;;;;;;25.58;15.50;;;;;;;11.09;100.00;101576.53;5083914;28;20054;-70
2024/03/19 01:36:44;;;;;;;22.15;13.70;;;;;;;11.09;100.00;101573.81;5078107;28;20071;-71
2024/03/19 01:39:32;;;;;;;21.38;13.50;;;;;;;11.07;100.00;101586.06;5086822;28;20534;-71
2024/03/19 01:42:19;;;;;;;21.85;12.90;;;;;;;11.04;100.00;101587.38;5084823;28;20047;-72
2024/03/19 01:45:09;;;;;;;23.40;13.68;;;;;;;11.04;100.00;101581.94;5098954;28;20079;-71
2024/03/19 01:47:56;;;;;;;23.55;14.32;;;;;;;11.04;100.00;101587.38;5084162;28;20051;-71
2024/03/19 01:50:43;;;;;;;20.17;14.00;;;;;;;11.05;100.00;101580.84;5083072;28;20044;-71
2024/03/19 01:53:31;;;;;;;27.30;14.65;;;;;;;11.06;100.00;101589.84;5093176;28;20054;-71
2024/03/19 01:56:18;;;;;;;23.15;14.15;;;;;;;11.05;100.00;101586.31;5084107;28;20081;-71
2024/03/19 01:59:05;;;;;;;21.65;14.20;;;;;;;11.05;100.00;101582.75;5083086;28;20070;-71
2024/03/19 02:01:52;;;;;;;24.67;14.77;;;;;;;11.06;100.00;101579.78;5083763;28;20134;-71
2024/03/19 02:04:39;;;;;;;22.05;13.85;;;;;;;11.07;100.00;101586.06;5098265;28;20065;-70
2024/03/19 02:07:26;;;;;;;24.58;13.85;;;;;;;11.08;100.00;101588.50;5098500;28;20099;-70
2024/03/19 02:10:13;;;;;;;25.40;13.88;;;;;;;11.07;100.00;101584.16;5096847;27;20075;-71
2024/03/19 02:13:00;;;;;;;22.20;14.60;;;;;;;11.08;100.00;101590.41;5117456;27;20043;-70
2024/03/19 02:15:50;;;;;;;26.05;15.48;;;;;;;11.07;100.00;101583.34;5117775;27;20060;-71
2024/03/19 02:18:37;;;;;;;24.35;13.48;;;;;;;11.05;100.00;101590.94;5118954;27;20099;-71
2024/03/19 02:21:27;;;;;;;23.60;13.88;;;;;;;11.04;100.00;101584.66;5074605;28;20467;-71
2024/03/19 02:24:14;;;;;;;24.48;13.80;;;;;;;11.04;100.00;101584.66;5079049;28;20537;-71
2024/03/19 02:27:02;;;;;;;23.38;13.80;;;;;;;11.04;100.00;101587.38;5065832;28;20079;-71
2024/03/19 02:29:49;;;;;;;23.55;13.68;;;;;;;11.02;100.00;101592.25;5096322;28;20039;-71
2024/03/19 02:32:37;;;;;;;22.30;13.95;;;;;;;11.02;100.00;101597.72;5092771;28;20040;-71
2024/03/19 02:35:24;;;;;;;20.58;13.25;;;;;;;11.02;100.00;101597.72;5100005;28;20044;-71
2024/03/19 02:38:11;;;;;;;23.48;13.65;;;;;;;11.02;100.00;101597.72;5071704;28;20090;-70
2024/03/19 02:40:58;;;;;;;21.98;13.25;;;;;;;11.02;100.00;101592.25;5094481;28;20078;-70
2024/03/19 02:43:45;;;;;;;23.42;13.68;;;;;;;11.03;100.00;101587.63;5082555;28;20047;-71
2024/03/19 02:46:32;;;;;;;22.95;13.93;;;;;;;11.03;100.00;101590.34;5082654;28;20071;-70
2024/03/19 02:49:19;;;;;;;22.42;13.10;;;;;;;11.03;100.00;101593.09;5095945;28;20040;-70
2024/03/19 02:52:06;;;;;;;22.52;13.73;;;;;;;11.03;100.00;101590.34;5080260;27;20545;-71
2024/03/19 02:54:53;;;;;;;21.83;13.52;;;;;;;11.02;100.00;101588.72;5069293;28;20097;-71
2024/03/19 02:57:41;;;;;;;22.20;13.55;;;;;;;11.02;100.00;101592.25;5097060;28;20079;-71
2024/03/19 03:00:28;;;;;;;25.05;13.38;;;;;;;11.03;100.00;101593.09;5083409;28;20048;-71
2024/03/19 03:03:15;;;;;;;20.38;13.40;;;;;;;11.02;100.00;101592.25;5088159;27;20047;-71
2024/03/19 03:06:02;;;;;;;25.55;13.50;;;;;;;11.03;100.00;101591.19;5104648;27;20074;-71
2024/03/19 03:08:49;;;;;;;22.48;12.77;;;;;;;11.03;100.00;101595.81;5116945;27;20071;-71
2024/03/19 03:11:37;;;;;;;20.23;12.52;;;;;;;11.03;100.00;101593.09;5114687;27;20078;-71
2024/03/19 03:14:23;;;;;;;21.15;13.73;;;;;;;11.01;100.00;101598.78;5082211;28;20083;-71
2024/03/19 03:17:10;;;;;;;18.80;12.43;;;;;;;11.00;100.00;101597.13;5076669;28;20040;-71
2024/03/19 03:19:59;;;;;;;19.27;12.40;;;;;;;11.02;100.00;101602.34;5076758;28;20055;-71
2024/03/19 03:22:46;;;;;;;19.98;12.60;;;;;;;11.01;100.00;101598.78;5081790;28;20043;-71
2024/03/19 03:25:33;;;;;;;20.77;12.38;;;;;;;11.01;100.00;101593.31;5084641;28;20086;-71
2024/03/19 03:28:20;;;;;;;20.13;11.93;;;;;;;11.01;100.00;101593.31;5084349;28;20071;-71
2024/03/19 03:31:07;;;;;;;19.25;12.43;;;;;;;11.02;100.00;101599.63;5097414;28;20467;-71
2024/03/19 03:33:55;;;;;;;21.80;13.25;;;;;;;11.02;100.00;101600.44;5082377;28;20078;-71
2024/03/19 03:36:42;;;;;;;21.60;12.93;;;;;;;11.01;100.00;101604.22;5064128;28;20117;-70
2024/03/19 03:39:29;;;;;;;21.05;12.60;;;;;;;11.01;100.00;101601.50;5091112;28;20073;-70
2024/03/19 03:42:16;;;;;;;18.42;12.63;;;;;;;11.01;100.00;101606.97;5097267;28;20055;-70
2024/03/19 03:45:03;;;;;;;20.45;13.18;;;;;;;11.00;100.00;101602.59;5084056;28;20457;-72
2024/03/19 03:47:50;;;;;;;22.05;13.07;;;;;;;11.00;100.00;101602.59;5090925;28;20042;-71
2024/03/19 03:50:37;;;;;;;22.38;13.13;;;;;;;11.01;100.00;101608.88;5070039;28;20079;-71
2024/03/19 03:53:24;;;;;;;19.13;12.68;;;;;;;11.01;100.00;101615.13;5082696;28;20081;-71
2024/03/19 03:56:11;;;;;;;20.00;13.18;;;;;;;11.01;100.00;101606.97;5087132;28;20048;-71
2024/03/19 03:58:58;;;;;;;24.65;13.90;;;;;;;11.02;100.00;101614.09;5080768;28;20060;-71
2024/03/19 04:01:47;;;;;;;21.15;12.80;;;;;;;11.02;100.00;101616.00;5054593;28;20384;-70
2024/03/19 04:04:34;;;;;;;19.70;12.45;;;;;;;11.01;100.00;101617.88;5081703;28;20056;-71
2024/03/19 04:07:21;;;;;;;18.40;12.65;;;;;;;11.01;100.00;101617.88;5086674;28;20376;-71
2024/03/19 04:10:10;;;;;;;21.90;13.23;;;;;;;11.01;100.00;101623.31;5074417;28;20071;-71
2024/03/19 04:12:57;;;;;;;20.48;13.05;;;;;;;11.02;100.00;101616.81;5090145;28;20522;-71
2024/03/19 04:15:44;;;;;;;20.83;13.32;;;;;;;11.02;100.00;101625.00;5103089;28;20051;-71
2024/03/19 04:18:31;;;;;;;22.45;13.43;;;;;;;11.00;100.00;101621.69;5075976;28;20039;-71
2024/03/19 04:21:18;;;;;;;18.50;13.23;;;;;;;11.01;100.00;101625.22;5101190;28;20048;-71
2024/03/19 04:24:05;;;;;;;23.17;13.80;;;;;;;11.01;100.00;101619.78;5072432;28;20048;-71
2024/03/19 04:26:52;;;;;;;20.67;13.25;;;;;;;11.01;100.00;101620.59;5097593;28;20439;-71
2024/03/19 04:29:40;;;;;;;20.67;13.88;;;;;;;11.01;100.00;101626.03;5094813;28;20534;-71
2024/03/19 04:32:27;;;;;;;21.83;13.25;;;;;;;11.01;100.00;101625.22;5098332;28;20043;-71
2024/03/19 04:35:14;;;;;;;22.40;12.50;;;;;;;11.00;100.00;101623.59;5072827;28;20453;-71
2024/03/19 04:38:01;;;;;;;19.77;13.60;;;;;;;11.00;100.00;101627.13;5069046;28;20048;-71
2024/03/19 04:40:48;;;;;;;19.55;12.88;;;;;;;11.00;100.00;101623.59;5086093;28;20101;-71
2024/03/19 04:43:35;;;;;;;22.30;13.57;;;;;;;11.00;100.00;101624.41;5100785;28;20071;-70
2024/03/19 04:46:22;;;;;;;18.90;12.80;;;;;;;10.99;100.00;101628.22;5101039;28;20079;-72
2024/03/19 04:49:09;;;;;;;21.35;12.80;;;;;;;10.98;100.00;101626.56;5107014;27;20082;-71
2024/03/19 04:51:56;;;;;;;21.13;12.27;;;;;;;10.99;100.00;101621.91;5079508;28;20044;-71
2024/03/19 04:54:43;;;;;;;22.55;12.88;;;;;;;10.98;100.00;101629.28;5051866;28;20055;-71
2024/03/19 04:57:30;;;;;;;19.35;12.65;;;;;;;10.99;100.00;101627.38;5080461;28;20515;-71
2024/03/19 05:00:17;;;;;;;19.77;12.43;;;;;;;11.00;100.00;101627.13;5096082;28;20047;-71
2024/03/19 05:03:04;;;;;;;20.90;13.13;;;;;;;11.01;100.00;101636.97;5097055;28;20067;-71
2024/03/19 05:05:52;;;;;;;19.75;12.30;;;;;;;11.00;100.00;101632.59;5084864;28;20518;-71
2024/03/19 05:08:40;;;;;;;19.67;12.35;;;;;;;11.00;100.00;101629.88;5071323;28;20444;-71
2024/03/19 05:11:27;;;;;;;20.75;12.73;;;;;;;10.99;100.00;101628.22;5089726;28;20079;-71
2024/03/19 05:14:14;;;;;;;22.70;13.15;;;;;;;11.00;100.00;101626.31;5098379;28;20098;-71
2024/03/19 05:17:03;;;;;;;19.02;12.05;;;;;;;10.99;100.00;101633.69;5084858;28;20070;-71
2024/03/19 05:19:50;;;;;;;18.60;12.43;;;;;;;10.99;100.00;101628.22;5091663;28;20139;-71
2024/03/19 05:22:37;;;;;;;19.05;13.40;;;;;;;10.98;100.00;101623.84;5096859;28;20079;-71
2024/03/19 05:25:24;;;;;;;18.73;12.15;;;;;;;10.99;100.00;101628.22;5069275;28;20223;-72
2024/03/19 05:28:11;;;;;;;23.17;13.38;;;;;;;10.98;100.00;101629.28;5097092;28;20044;-71
2024/03/19 05:30:58;;;;;;;21.17;12.35;;;;;;;10.97;100.00;101624.91;5108906;28;20039;-71
2024/03/19 05:33:45;;;;;;;19.73;12.18;;;;;;;10.98;100.00;101631.19;5077499;28;20043;-72
2024/03/19 05:36:32;;;;;;;19.27;11.38;;;;;;;10.97;100.00;101624.91;5063828;28;20040;-71
2024/03/19 05:39:19;;;;;;;23.90;11.90;;;;;;;10.97;100.00;101635.00;5064530;28;20040;-71
2024/03/19 05:42:06;;;;;;;20.33;11.73;;;;;;;10.95;100.00;101637.97;5091575;28;20154;-71
2024/03/19 05:44:56;;;;;;;18.58;11.40;;;;;;;10.96;100.00;101645.06;5083298;28;20039;-72
2024/03/19 05:47:44;;;;;;;22.65;12.07;;;;;;;10.97;100.00;101641.28;5059911;28;20047;-71
2024/03/19 05:50:32;;;;;;;21.65;12.90;;;;;;;10.96;100.00;101639.63;5083138;28;20572;-70
2024/03/19 05:53:19;;;;;;;23.52;13.80;;;;;;;10.92;100.00;101638.47;5080788;28;20040;-72
2024/03/19 05:56:07;;;;;;;24.73;13.75;;;;;;;10.83;100.00;101629.91;5097170;28;20140;-71
2024/03/19 05:58:54;;;;;;;19.83;13.75;;;;;;;10.76;100.00;101636.59;5045845;28;1078328;-69
2024/03/19 06:01:47;;;;;;;23.83;15.07;;;;;;;10.75;100.00;101643.09;5083480;28;20036;-71
2024/03/19 06:04:52;;;;;;;25.90;12.20;;;;;;;10.78;100.00;101643.44;5104310;28;20051;-71
2024/03/19 06:07:39;;;;;;;22.25;12.25;;;;;;;10.82;100.00;101641.03;5098083;28;20083;-71
2024/03/19 06:10:26;;;;;;;21.38;13.05;;;;;;;10.85;100.00;101644.09;5071373;28;20158;-71
2024/03/19 06:13:13;;;;;;;21.77;13.13;;;;;;;10.86;100.00;101645.75;5093587;27;20130;-71
2024/03/19 06:16:00;;;;;;;18.27;12.48;;;;;;;10.89;100.00;101652.59;5068797;28;20126;-71
2024/03/19 06:18:48;;;;;;;23.55;12.32;;;;;;;10.89;100.00;101649.88;5083682;28;20126;-71
2024/03/19 06:21:35;;;;;;;22.67;12.98;;;;;;;10.91;100.00;101647.72;5085468;28;20078;-72
2024/03/19 06:24:22;;;;;;;20.88;12.10;;;;;;;10.92;100.00;101654.00;5084644;28;20134;-70
2024/03/19 06:27:09;;;;;;;29.08;12.85;;;;;;;10.90;100.00;101648.81;5103579;28;20055;-71
2024/03/19 06:29:56;;;;;;;20.92;12.15;;;;;;;10.89;100.00;101668.94;5090331;28;20042;-72
2024/03/19 06:32:47;;;;;;;18.55;12.18;;;;;;;10.88;100.00;101661.88;5099845;28;20044;-72
2024/03/19 06:35:34;;;;;;;22.90;13.25;;;;;;;10.87;100.00;101662.91;4378340;28;9999941;-70
2024/03/19 06:38:21;;;;;;;22.00;12.02;;;;;;;10.89;100.00;101660.78;5095083;28;20055;-72
2024/03/19 06:41:08;;;;;;;20.08;12.63;;;;;;;10.90;100.00;101667.06;5082235;28;20046;-71
2024/03/19 06:43:55;;;;;;;22.00;12.68;;;;;;;10.89;100.00;101660.78;5041408;27;20073;-72
2024/03/19 06:46:42;;;;;;;21.70;12.77;;;;;;;10.89;100.00;101666.22;5077321;28;20090;-72
2024/03/19 06:49:29;;;;;;;21.17;12.45;;;;;;;10.89;100.00;101666.22;5081741;28;20130;-71
2024/03/19 06:52:17;;;;;;;18.90;12.98;;;;;;;10.90;100.00;101667.91;5064197;28;20479;-72
2024/03/19 06:55:04;;;;;;;18.65;12.25;;;;;;;10.90;100.00;101667.91;5061087;28;20070;-70
2024/03/19 06:57:51;;;;;;;20.33;12.65;;;;;;;10.93;100.00;101677.47;5075618;28;20069;-72
2024/03/19 07:00:39;;;;;;;22.00;12.02;;;;;;;10.94;100.00;101674.47;5069780;28;20559;-72
2024/03/19 07:03:27;;;;;;;24.52;11.85;;;;;;;10.90;100.00;101673.34;5092777;28;20043;-71
2024/03/19 07:06:14;;;;;;;17.60;11.45;;;;;;;10.93;100.00;101672.03;5079133;28;20089;-72
2024/03/19 07:09:01;;;;;;;19.55;11.88;;;;;;;10.96;100.00;101671.50;5078846;28;20066;-70
2024/03/19 07:11:48;;;;;;;19.08;11.55;;;;;;;10.96;100.00;101669.59;5091928;28;20146;-70
2024/03/19 07:14:36;;;;;;;19.67;11.27;;;;;;;10.95;100.00;101680.78;5055280;28;20126;-70
2024/03/19 07:17:25;;;;;;;22.90;11.10;;;;;;;10.96;100.00;101677.78;5072730;28;20042;-72
2024/03/19 07:20:12;;;;;;;19.48;10.55;;;;;;;10.97;100.00;101684.91;5080574;28;20055;-72
2024/03/19 07:22:59;;;;;;;19.08;11.70;;;;;;;11.00;100.00;101678.94;5074455;28;20040;-73
2024/03/19 07:25:46;;;;;;;18.95;11.32;;;;;;;10.98;100.00;101670.19;5075121;28;20470;-72
2024/03/19 07:28:33;;;;;;;20.25;10.63;;;;;;;11.00;100.00;101684.41;5049601;28;20055;-73
2024/03/19 07:31:22;;;;;;;18.02;10.70;;;;;;;10.99;100.00;101684.63;5080814;28;20428;-73
2024/03/19 07:34:09;;;;;;;16.80;10.52;;;;;;;10.99;100.00;101682.75;5098930;28;20079;-71
2024/03/19 07:36:56;;;;;;;17.80;10.88;;;;;;;11.01;100.00;101680.59;5084368;28;20061;-71
2024/03/19 07:39:43;;;;;;;17.58;11.02;;;;;;;11.03;100.00;101688.53;5097696;28;20119;-70
2024/03/19 07:42:30;;;;;;;18.42;10.63;;;;;;;11.05;100.00;101687.22;5063449;28;20466;-70
2024/03/19 07:45:18;;;;;;;17.67;10.43;;;;;;;11.08;100.00;101686.69;5063451;28;20085;-71
2024/03/19 07:48:06;;;;;;;15.85;10.88;;;;;;;11.11;100.00;101695.47;5064237;28;20416;-71
2024/03/19 07:50:54;;;;;;;19.50;10.35;;;;;;;11.13;100.00;101693.31;5080933;28;20074;-71
2024/03/19 07:53:41;;;;;;;19.83;10.20;;;;;;;11.12;100.00;101692.50;5064984;28;20044;-71
2024/03/19 07:56:30;;;;;;;17.83;10.18;;;;;;;11.11;100.00;101690.00;5064039;28;20044;-71
2024/03/19 07:59:17;;;;;;;17.70;9.65;;;;;;;11.13;100.00;101685.94;5064788;28;20477;-71
2024/03/19 08:02:06;;;;;;;21.33;11.20;;;;;;;11.17;100.00;101694.47;5076762;28;20051;-71
2024/03/19 08:04:53;;;;;;;20.67;11.80;;;;;;;11.20;100.00;101696.69;5052950;28;20056;-71
2024/03/19 08:07:41;;;;;;;22.50;11.57;;;;;;;11.20;100.00;101693.97;5051846;28;20102;-71
2024/03/19 08:10:28;;;;;;;19.27;11.18;;;;;;;11.19;100.00;101697.78;5070007;28;20050;-71
2024/03/19 08:13:15;;;;;;;19.67;11.25;;;;;;;11.20;100.00;101699.41;5103860;28;20062;-71
2024/03/19 08:16:03;;;;;;;22.77;12.57;;;;;;;11.23;100.00;101701.63;5117078;28;20046;-71
2024/03/19 08:18:52;;;;;;;21.83;11.10;;;;;;;11.23;100.00;101704.38;5108908;28;20096;-71
2024/03/19 08:21:39;;;;;;;20.05;11.75;;;;;;;11.27;100.00;101700.06;5070934;28;20495;-71
2024/03/19 08:24:27;;;;;;;17.30;11.00;;;;;;;11.27;100.00;101698.16;5069806;28;20078;-71
2024/03/19 08:27:17;;;;;;;18.95;11.32;;;;;;;11.30;100.00;101694.94;5097030;28;20071;-70
2024/03/19 08:30:06;;;;;;;19.60;9.90;;;;;;;11.34;100.00;101700.72;5055541;28;20036;-69
2024/03/19 08:32:53;;;;;;;16.92;10.43;;;;;;;11.34;100.00;101700.72;5082883;28;20063;-72
2024/03/19 08:35:40;;;;;;;16.63;9.32;;;;;;;11.38;100.00;101698.31;5096363;28;20047;-70
2024/03/19 08:38:27;;;;;;;17.80;10.32;;;;;;;11.42;100.00;101699.44;5081601;28;20422;-71
2024/03/19 08:41:14;;;;;;;23.00;11.05;;;;;;;11.45;100.00;101696.25;5062972;28;20407;-71
2024/03/19 08:44:02;;;;;;;16.33;9.45;;;;;;;11.48;100.00;101702.00;5080832;28;20044;-70
2024/03/19 08:46:49;;;;;;;15.70;9.02;;;;;;;11.50;100.00;101699.84;5041260;28;20103;-72
2024/03/19 08:49:36;;;;;;;17.85;9.05;;;;;;;11.53;100.00;101706.72;5081970;27;20043;-71
2024/03/19 08:52:23;;;;;;;25.80;9.10;;;;;;;11.57;100.00;101705.13;5054503;28;20059;-70
2024/03/19 08:55:12;;;;;;;20.20;9.18;;;;;;;11.60;100.00;101698.34;5067442;28;20093;-72
2024/03/19 08:58:00;;;;;;;22.75;9.93;;;;;;;11.63;100.00;101700.56;5080509;28;20138;-72
2024/03/19 09:00:47;;;;;;;19.20;8.63;;;;;;;11.64;100.00;101708.50;5083853;28;20051;-71
2024/03/19 09:03:35;;;;;;;19.20;9.00;;;;;;;11.67;100.00;101698.97;5053522;28;20048;-71
2024/03/19 09:06:22;;;;;;;18.65;8.40;;;;;;;11.71;100.00;101703.69;5080588;28;20048;-71
2024/03/19 09:09:09;;;;;;;15.60;8.25;;;;;;;11.78;100.00;101706.19;5066345;28;20047;-72
2024/03/19 09:11:56;;;;;;;19.48;7.13;;;;;;;11.85;100.00;101698.63;5064877;28;20048;-71
2024/03/19 09:14:43;;;;;;;12.30;5.68;;;;;;;11.89;100.00;101696.25;5085474;28;20056;-71
2024/03/19 09:17:31;;;;;;;14.38;5.88;;;;;;;11.96;100.00;101707.00;5097653;28;20044;-72
2024/03/19 09:20:18;;;;;;;15.77;6.45;;;;;;;11.97;100.00;101700.44;5058519;27;20050;-71
2024/03/19 09:23:05;;;;;;;16.10;6.55;;;;;;;11.98;100.00;101696.63;5099280;28;20284;-71
2024/03/19 09:25:53;;;;;;;16.23;6.65;;;;;;;11.98;100.00;101693.88;5065042;28;20056;-71
2024/03/19 09:28:40;;;;;;;14.60;6.50;;;;;;;11.99;100.00;101692.81;5078992;28;20087;-70
2024/03/19 09:31:27;;;;;;;11.82;5.95;;;;;;;11.98;100.00;101702.09;5079303;28;20052;-72
2024/03/19 09:34:14;;;;;;;17.40;6.60;;;;;;;11.99;100.00;101699.09;5079013;28;20500;-72
2024/03/19 09:37:01;;;;;;;12.60;6.32;;;;;;;12.01;100.00;101696.13;5066215;28;20067;-71
2024/03/19 09:39:48;;;;;;;15.73;6.25;;;;;;;12.01;100.00;101699.69;5080674;28;20052;-71
2024/03/19 09:42:36;;;;;;;13.93;5.75;;;;;;;12.04;100.00;101698.34;5102687;27;20407;-71
2024/03/19 09:45:30;;;;;;;14.77;5.63;;;;;;;12.06;100.00;101696.19;5086415;27;20055;-71
2024/03/19 09:48:20;;;;;;;15.73;5.65;;;;;;;12.06;100.00;101699.72;5078871;28;20535;-72
2024/03/19 09:51:14;;;;;;;11.82;5.63;;;;;;;12.06;100.00;101707.09;5077722;28;20051;-72
2024/03/19 09:54:02;;;;;;;15.73;5.53;;;;;;;12.05;100.00;101699.97;5051366;28;20113;-72
2024/03/19 09:56:50;;;;;;;12.13;5.50;;;;;;;12.06;100.00;101712.56;5065096;28;20101;-72
2024/03/19 09:59:37;;;;;;;11.98;4.93;;;;;;;12.07;100.00;101711.47;5038946;28;20086;-71
2024/03/19 10:02:24;;;;;;;12.00;4.72;;;;;;;12.09;100.00;101706.59;5041064;28;20507;-71
2024/03/19 10:05:13;;;;;;;12.07;5.43;;;;;;;12.11;100.00;101704.44;5051060;28;20094;-71
2024/03/19 10:08:00;;;;;;;12.38;5.10;;;;;;;12.17;100.00;101708.88;5065392;28;20134;-71
2024/03/19 10:10:48;;;;;;;13.00;4.97;;;;;;;12.20;100.00;101702.06;5038332;28;20492;-71
2024/03/19 10:13:35;;;;;;;15.25;5.03;;;;;;;12.29;100.00;101701.34;5065444;28;20051;-71
2024/03/19 10:16:22;;;;;;;14.52;5.05;;;;;;;12.32;100.00;101706.28;5070034;28;20075;-70
2024/03/19 10:19:12;;;;;;;14.25;5.40;;;;;;;12.31;100.00;101704.66;5098005;28;20044;-71
2024/03/19 10:22:00;;;;;;;15.27;4.97;;;;;;;12.32;100.00;101695.38;5085022;27;20112;-70
2024/03/19 10:24:47;;;;;;;13.60;4.63;;;;;;;12.33;100.00;101688.81;5070538;28;20077;-72
2024/03/19 10:27:35;;;;;;;11.40;5.10;;;;;;;12.31;100.00;101693.72;5097312;28;20047;-72
2024/03/19 10:30:22;;;;;;;12.50;5.20;;;;;;;12.33;100.00;101686.06;5057069;28;20051;-71
2024/03/19 10:33:12;;;;;;;14.50;5.20;;;;;;;12.40;100.00;101687.78;5083046;28;20079;-70
2024/03/19 10:35:59;;;;;;;17.33;5.70;;;;;;;12.44;100.00;101678.81;5056626;28;20043;-72
2024/03/19 10:38:46;;;;;;;13.70;4.75;;;;;;;12.52;100.00;101677.50;5070288;28;20491;-72
2024/03/19 10:41:33;;;;;;;15.75;4.97;;;;;;;12.59;100.00;101678.09;5083103;28;20055;-71
2024/03/19 10:44:22;;;;;;;14.98;5.50;;;;;;;12.66;100.00;101673.25;5091564;28;20040;-71
2024/03/19 10:47:13;;;;;;;11.48;4.85;;;;;;;12.71;100.00;101665.09;5062362;28;20040;-71
2024/03/19 10:50:00;;;;;;;12.13;4.68;;;;;;;12.77;100.00;101669.53;5073899;28;20499;-71
2024/03/19 10:53:00;;;;;;;13.75;5.40;;;;;;;12.82;100.00;101668.75;5041492;28;20048;-71
2024/03/19 10:55:54;;;;;;;15.63;4.53;;;;;;;12.87;100.00;101665.19;5062563;28;20126;-71
2024/03/19 10:58:41;;;;;;;12.38;4.25;;;;;;;12.97;100.00;101657.06;5065624;28;20067;-70
2024/03/19 11:01:48;;;;;;;13.60;4.38;;;;;;;13.07;100.00;101668.06;5085483;28;20051;-71
2024/03/19 11:04:37;;;;;;;14.90;4.35;;;;;;;13.15;100.00;101658.53;5079756;28;20051;-69
2024/03/19 11:07:24;;;;;;;15.35;4.43;;;;;;;13.20;100.00;101670.34;5072580;28;20554;-70
2024/03/19 11:10:29;;;;;;;11.77;3.30;;;;;;;13.22;100.00;101670.88;5049571;28;20515;-71
2024/03/19 11:13:21;;;;;;;12.77;3.53;;;;;;;13.26;100.00;101673.13;5059953;28;20044;-70
2024/03/19 11:16:15;;;;;;;9.48;3.33;;;;;;;13.34;100.00;101672.63;5065205;28;20074;-71
2024/03/19 11:19:02;;;;;;;11.50;3.20;;;;;;;13.33;100.00;101668.25;5097344;28;20138;-70
2024/03/19 11:21:50;;;;;;;9.82;2.90;;;;;;;13.32;100.00;101674.81;5083930;28;20074;-70
2024/03/19 11:24:40;;;;;;;11.98;3.78;;;;;;;13.34;100.00;101667.16;4374674;28;10000716;-71
2024/03/19 11:27:35;;;;;;;10.65;3.30;;;;;;;13.41;100.00;101665.81;5059586;28;20044;-71
2024/03/19 11:30:22;;;;;;;13.48;3.85;;;;;;;13.46;100.00;101670.50;5066327;28;20165;-71
2024/03/19 11:33:10;;;;;;;13.82;4.03;;;;;;;13.45;100.00;101668.88;5080335;28;20185;-71
2024/03/19 11:35:58;;;;;;;12.02;3.50;;;;;;;13.47;100.00;101661.22;5091655;28;20517;-70
2024/03/19 11:38:45;;;;;;;12.93;4.13;;;;;;;13.51;100.00;101664.22;5065447;28;20048;-70
2024/03/19 11:41:32;;;;;;;13.27;4.05;;;;;;;13.61;100.00;101667.00;5066543;28;20055;-70
2024/03/19 11:44:21;;;;;;;11.18;3.60;;;;;;;13.58;100.00;101651.94;5078926;28;20039;-70
2024/03/19 11:47:09;;;;;;;14.75;3.83;;;;;;;13.60;100.00;101657.97;5060527;28;20044;-71
2024/03/19 11:49:56;;;;;;;13.57;3.38;;;;;;;13.62;100.00;101664.00;5045813;28;20098;-70
2024/03/19 11:52:47;;;;;;;13.27;4.85;;;;;;;13.71;100.00;101664.34;5060180;28;20040;-70
2024/03/19 11:55:34;;;;;;;11.65;3.42;;;;;;;13.78;100.00;101670.38;5079973;28;20051;-71
2024/03/19 11:58:24;;;;;;;11.32;3.40;;;;;;;13.80;100.00;101667.34;5052488;28;20064;-70
2024/03/19 12:01:12;;;;;;;11.10;3.50;;;;;;;13.84;100.00;101657.50;5077174;28;20071;-70
2024/03/19 12:03:59;;;;;;;12.68;4.78;;;;;;;13.85;100.00;101660.00;5054102;28;20071;-71
2024/03/19 12:06:47;;;;;;;10.13;3.75;;;;;;;13.91;100.00;101649.88;5051408;28;20048;-71
2024/03/19 12:09:36;;;;;;;12.93;3.55;;;;;;;13.87;100.00;101653.41;5036126;28;20052;-70
2024/03/19 12:12:23;;;;;;;12.40;3.90;;;;;;;13.89;100.00;101652.03;5062516;28;20087;-70
2024/03/19 12:15:12;;;;;;;11.98;3.72;;;;;;;13.85;100.00;101643.56;5063719;28;20463;-70
2024/03/19 12:18:00;;;;;;;10.77;3.70;;;;;;;13.92;100.00;101650.69;5074424;28;20062;-69
2024/03/19 12:20:48;;;;;;;12.05;3.60;;;;;;;13.84;100.00;101639.16;5084806;28;20056;-70
2024/03/19 12:23:37;;;;;;;14.18;4.13;;;;;;;13.83;100.00;101650.41;5100152;28;20069;-69
2024/03/19 12:26:24;;;;;;;12.68;3.97;;;;;;;13.87;100.00;101654.22;5102112;28;20052;-70
2024/03/19 12:29:14;;;;;;;14.43;4.35;;;;;;;13.83;100.00;101653.13;5082868;28;20370;-70
2024/03/19 12:32:15;;;;;;;11.07;3.58;;;;;;;13.83;100.00;101653.97;5068820;28;20062;-69
2024/03/19 12:35:07;;;;;;;12.23;3.60;;;;;;;13.83;100.00;101655.88;5085181;28;20043;-69
2024/03/19 12:37:54;;;;;;;13.23;3.97;;;;;;;13.87;100.00;101659.72;5078365;28;20032;-69